Time;durP1;ratioP1;P1;durP2;ratioP2;P2;SDS_P1;SDS_P2;PMS_P1;PMS_P2;Temp;Humidity;BMP_temperature;BMP_pressure;BME280_temperature;BME280_humidity;BME280_pressure;Samples;Min_cycle;Max_cycle;Signal;HPM_P1;HPM_P2
2023/09/22 00:00:23;;;;;;;1.27;0.90;;;16.50;99.90;;;;;;5056364;28;20246;-68
2023/09/22 00:02:49;;;;;;;0.68;0.55;;;16.50;99.90;;;;;;5040233;28;20275;-67
2023/09/22 00:05:16;;;;;;;0.57;0.57;;;16.60;99.90;;;;;;5041648;28;20205;-68
2023/09/22 00:07:45;;;;;;;1.00;0.70;;;16.60;99.90;;;;;;5050113;28;20204;-68
2023/09/22 00:10:13;;;;;;;0.90;0.70;;;16.50;99.90;;;;;;5021396;28;21058;-68
2023/09/22 00:12:40;;;;;;;1.52;0.82;;;16.50;99.90;;;;;;5053388;28;20203;-68
2023/09/22 00:15:08;;;;;;;2.45;0.90;;;16.10;99.90;;;;;;5053176;28;21007;-68
2023/09/22 00:17:36;;;;;;;1.95;1.20;;;16.50;99.90;;;;;;5056599;28;21031;-68
2023/09/22 00:20:03;;;;;;;0.70;0.70;;;16.50;99.90;;;;;;5048568;28;20216;-67
2023/09/22 00:22:30;;;;;;;1.00;0.90;;;16.50;99.90;;;;;;5044481;28;20868;-68
2023/09/22 00:24:57;;;;;;;1.63;1.27;;;16.60;99.90;;;;;;5043337;28;20212;-67
2023/09/22 00:27:25;;;;;;;1.58;1.30;;;16.50;99.90;;;;;;5044183;28;20228;-67
2023/09/22 00:29:51;;;;;;;2.50;1.42;;;16.60;99.90;;;;;;5056528;28;20780;-67
2023/09/22 00:32:18;;;;;;;1.40;1.30;;;16.40;99.90;;;;;;5054582;28;21134;-68
2023/09/22 00:34:45;;;;;;;3.30;1.77;;;16.50;99.90;;;;;;5058536;28;20203;-67
2023/09/22 00:37:12;;;;;;;1.85;1.67;;;16.50;99.90;;;;;;5044741;28;20211;-67
2023/09/22 00:39:39;;;;;;;3.55;1.90;;;16.40;99.90;;;;;;5045608;28;20741;-68
2023/09/22 00:42:09;;;;;;;2.03;1.83;;;16.50;99.90;;;;;;5026562;28;20231;-67
2023/09/22 00:44:37;;;;;;;3.47;2.17;;;16.40;99.90;;;;;;5057110;28;20690;-67
2023/09/22 00:47:06;;;;;;;2.63;2.20;;;16.30;99.90;;;;;;5050785;28;20204;-67
2023/09/22 00:49:33;;;;;;;2.45;2.20;;;16.30;99.90;;;;;;5054522;28;20203;-67
2023/09/22 00:52:00;;;;;;;1.90;1.80;;;16.40;99.90;;;;;;5044585;28;20212;-68
2023/09/22 00:54:26;;;;;;;3.00;2.40;;;16.50;99.90;;;;;;5052088;28;20212;-67
2023/09/22 00:56:54;;;;;;;2.20;2.00;;;16.30;99.90;;;;;;5028300;28;20564;-67
2023/09/22 00:59:21;;;;;;;2.28;2.03;;;16.20;99.90;;;;;;5056267;28;20203;-67
2023/09/22 01:01:49;;;;;;;2.30;2.10;;;16.20;99.90;;;;;;5056418;28;20708;-67
2023/09/22 01:04:16;;;;;;;1.70;1.60;;;15.90;99.90;;;;;;5058221;28;20224;-68
2023/09/22 01:06:45;;;;;;;3.13;1.90;;;16.10;99.90;;;;;;5056411;28;20204;-67
2023/09/22 01:09:11;;;;;;;1.55;1.45;;;16.10;99.90;;;;;;5033129;28;20201;-67
2023/09/22 01:11:39;;;;;;;2.33;1.80;;;16.20;99.90;;;;;;5021812;28;20212;-67
2023/09/22 01:14:06;;;;;;;2.22;1.75;;;16.10;99.90;;;;;;5056864;28;21022;-67
2023/09/22 01:16:33;;;;;;;2.33;1.98;;;16.10;99.90;;;;;;5058676;28;20207;-67
2023/09/22 01:19:01;;;;;;;1.80;1.50;;;16.20;99.90;;;;;;5057099;28;20203;-68
2023/09/22 01:21:30;;;;;;;1.55;1.45;;;16.10;99.90;;;;;;5060793;28;20192;-68
2023/09/22 01:23:57;;;;;;;3.20;1.88;;;16.00;99.90;;;;;;5048682;28;20226;-67
2023/09/22 01:26:24;;;;;;;1.70;1.50;;;16.10;99.90;;;;;;5047837;28;23417;-67
2023/09/22 01:28:51;;;;;;;2.28;1.83;;;15.90;99.90;;;;;;5032165;28;20212;-67
2023/09/22 01:31:18;;;;;;;3.60;2.15;;;15.80;99.90;;;;;;5060699;28;20570;-68
2023/09/22 01:33:45;;;;;;;1.88;1.75;;;15.90;99.90;;;;;;5058102;28;20298;-67
2023/09/22 01:36:13;;;;;;;2.40;2.20;;;15.80;99.90;;;;;;5060352;28;20193;-67
2023/09/22 01:38:42;;;;;;;2.15;1.90;;;15.90;99.90;;;;;;5043923;28;20280;-67
2023/09/22 01:41:11;;;;;;;1.85;1.75;;;15.90;99.90;;;;;;5049110;28;20196;-67
2023/09/22 01:43:38;;;;;;;1.90;1.67;;;15.90;99.90;;;;;;5023781;28;20223;-67
2023/09/22 01:46:05;;;;;;;1.95;1.75;;;15.80;99.90;;;;;;5059927;28;20203;-68
2023/09/22 01:48:32;;;;;;;2.10;1.85;;;;;;;;;;5055314;28;20204;-67
2023/09/22 01:51:02;;;;;;;1.88;1.77;;;16.10;99.90;;;;;;5061238;28;20196;-67
2023/09/22 01:53:29;;;;;;;1.83;1.73;;;15.90;99.90;;;;;;5044046;28;20215;-67
2023/09/22 01:55:57;;;;;;;2.08;1.88;;;15.60;99.90;;;;;;5050510;28;20196;-67
2023/09/22 01:58:24;;;;;;;6.00;1.75;;;15.90;99.90;;;;;;5025419;28;20227;-67
2023/09/22 02:00:50;;;;;;;2.00;1.77;;;15.90;99.90;;;;;;5045777;28;20359;-67
2023/09/22 02:03:18;;;;;;;1.83;1.73;;;15.90;99.90;;;;;;5056535;28;20219;-67
2023/09/22 02:05:44;;;;;;;2.05;1.92;;;16.10;99.90;;;;;;5050181;28;20204;-67
2023/09/22 02:08:11;;;;;;;2.58;1.80;;;15.90;99.90;;;;;;5057954;28;20673;-67
2023/09/22 02:10:38;;;;;;;1.95;1.80;;;15.90;99.90;;;;;;5033490;28;20192;-67
2023/09/22 02:13:09;;;;;;;2.08;1.88;;;16.30;99.90;;;;;;5044908;28;20203;-68
2023/09/22 02:15:36;;;;;;;2.28;2.08;;;16.00;99.90;;;;;;5021689;28;20216;-67
2023/09/22 02:18:04;;;;;;;3.63;2.15;;;15.90;99.90;;;;;;5057798;28;20211;-67
2023/09/22 02:20:31;;;;;;;4.45;2.30;;;16.10;99.90;;;;;;5059709;28;20199;-67
2023/09/22 02:22:59;;;;;;;2.53;2.13;;;16.00;99.90;;;;;;5058909;28;20221;-67
2023/09/22 02:25:26;;;;;;;2.45;2.17;;;15.00;99.90;;;;;;5045606;28;20203;-67
2023/09/22 02:27:54;;;;;;;4.13;2.17;;;15.90;99.90;;;;;;5061972;28;22157;-67
2023/09/22 02:30:23;;;;;;;2.45;2.25;;;15.90;99.90;;;;;;5017032;28;20207;-67
2023/09/22 02:32:50;;;;;;;3.70;2.33;;;16.00;99.90;;;;;;5062713;28;20206;-68
2023/09/22 02:35:17;;;;;;;6.35;3.65;;;16.10;99.90;;;;;;5063513;28;20198;-67
2023/09/22 02:37:44;;;;;;;4.30;3.35;;;16.00;99.90;;;;;;5056055;28;20237;-67
2023/09/22 02:40:13;;;;;;;3.88;3.45;;;16.00;99.90;;;;;;5048999;28;20204;-67
2023/09/22 02:42:40;;;;;;;3.47;3.17;;;16.00;99.90;;;;;;5052590;28;20210;-67
2023/09/22 02:45:10;;;;;;;3.58;3.05;;;16.10;99.90;;;;;;5050142;28;20204;-68
2023/09/22 02:47:40;;;;;;;4.82;3.65;;;16.00;99.90;;;;;;5042461;28;20685;-67
2023/09/22 02:50:09;;;;;;;7.50;4.53;;;16.00;99.90;;;;;;5062901;28;20288;-67
2023/09/22 02:52:38;;;;;;;4.35;3.35;;;15.80;99.90;;;;;;5057999;28;20343;-68
2023/09/22 02:55:07;;;;;;;10.02;4.28;;;16.10;99.90;;;;;;5063670;28;20208;-67
2023/09/22 02:57:34;;;;;;;5.10;3.97;;;16.00;99.90;;;;;;5039638;28;21291;-67
2023/09/22 03:00:02;;;;;;;4.63;3.92;;;16.10;99.90;;;;;;5054869;28;20231;-68
2023/09/22 03:02:29;;;;;;;4.70;3.85;;;16.00;99.90;;;;;;5018268;28;21318;-68
2023/09/22 03:04:57;;;;;;;5.55;4.07;;;16.10;99.90;;;;;;5059189;28;20888;-67
2023/09/22 03:07:24;;;;;;;4.55;3.92;;;;;;;;;;5057283;28;20203;-67
2023/09/22 03:09:52;;;;;;;4.60;4.15;;;16.00;99.90;;;;;;5058301;28;20196;-68
2023/09/22 03:12:19;;;;;;;4.70;4.18;;;16.00;99.90;;;;;;5043836;28;20222;-68
2023/09/22 03:14:49;;;;;;;5.28;4.25;;;16.00;99.90;;;;;;5049388;28;20205;-68
2023/09/22 03:17:16;;;;;;;5.13;4.38;;;;;;;;;;5026359;28;20219;-67
2023/09/22 03:19:43;;;;;;;6.85;5.15;;;16.10;99.90;;;;;;5055954;28;20208;-67
2023/09/22 03:22:11;;;;;;;5.15;4.65;;;16.10;99.90;;;;;;5055413;28;20237;-67
2023/09/22 03:24:37;;;;;;;9.77;5.45;;;16.20;99.90;;;;;;5054549;28;20746;-67
2023/09/22 03:27:04;;;;;;;6.15;5.32;;;16.10;99.90;;;;;;5048573;28;20514;-67
2023/09/22 03:29:31;;;;;;;6.65;5.32;;;16.10;99.90;;;;;;5046885;28;20230;-67
2023/09/22 03:31:58;;;;;;;7.75;5.20;;;16.10;99.90;;;;;;5011299;28;20220;-68
2023/09/22 03:34:24;;;;;;;6.32;5.40;;;16.10;99.90;;;;;;5057519;28;20208;-67
2023/09/22 03:36:52;;;;;;;7.05;5.15;;;16.10;99.90;;;;;;5057250;28;20291;-67
2023/09/22 03:39:22;;;;;;;7.95;5.50;;;16.10;99.90;;;;;;5055117;28;20205;-67
2023/09/22 03:41:52;;;;;;;6.60;5.75;;;16.10;99.90;;;;;;5041436;28;20226;-68
2023/09/22 03:44:19;;;;;;;7.63;6.53;;;16.10;99.90;;;;;;5062785;28;20817;-67
2023/09/22 03:46:46;;;;;;;6.90;6.10;;;15.60;99.90;;;;;;5014968;28;20204;-68
2023/09/22 03:49:13;;;;;;;6.97;6.28;;;16.10;99.90;;;;;;5054831;28;20196;-67
2023/09/22 03:51:39;;;;;;;7.25;6.18;;;16.20;99.90;;;;;;5056276;28;20204;-67
2023/09/22 03:54:07;;;;;;;7.68;6.60;;;16.20;99.90;;;;;;5055301;28;20593;-67
2023/09/22 03:56:37;;;;;;;7.65;6.10;;;16.20;99.90;;;;;;5060498;28;20196;-67
2023/09/22 03:59:04;;;;;;;7.47;6.22;;;16.20;99.90;;;;;;5046044;28;20558;-68
2023/09/22 04:01:32;;;;;;;9.02;6.80;;;16.20;99.90;;;;;;5046340;28;20617;-67
2023/09/22 04:03:59;;;;;;;7.70;6.68;;;16.20;99.90;;;;;;5031147;28;20824;-67
2023/09/22 04:06:25;;;;;;;8.10;6.35;;;16.20;99.90;;;;;;5053785;28;20234;-67
2023/09/22 04:08:52;;;;;;;14.07;6.28;;;16.10;99.90;;;;;;5054899;28;20192;-67
2023/09/22 04:11:19;;;;;;;7.85;6.32;;;16.20;99.90;;;;;;5037674;28;20222;-67
2023/09/22 04:13:47;;;;;;;6.97;5.53;;;16.20;99.90;;;;;;5031083;28;20215;-68
2023/09/22 04:16:14;;;;;;;8.60;5.95;;;16.10;99.90;;;;;;5044710;28;20292;-67
2023/09/22 04:18:41;;;;;;;9.15;6.47;;;16.80;99.90;;;;;;5023552;28;20193;-67
2023/09/22 04:21:09;;;;;;;7.57;6.78;;;16.00;99.90;;;;;;5053411;28;20203;-67
2023/09/22 04:23:35;;;;;;;9.25;6.93;;;15.90;99.90;;;;;;5057865;28;20226;-67
2023/09/22 04:26:09;;;;;;;8.57;7.18;;;16.00;99.90;;;;;;5053511;28;20459;-68
2023/09/22 04:28:36;;;;;;;8.25;7.35;;;16.00;99.90;;;;;;5048448;28;20205;-67
2023/09/22 04:31:04;;;;;;;7.07;6.10;;;15.90;99.90;;;;;;5040307;28;20203;-67
2023/09/22 04:33:32;;;;;;;10.93;7.63;;;15.90;99.90;;;;;;5047551;28;20223;-67
2023/09/22 04:35:59;;;;;;;7.53;6.15;;;15.90;99.90;;;;;;5025908;28;20358;-68
2023/09/22 04:38:26;;;;;;;8.98;7.18;;;16.20;99.90;;;;;;5043530;28;20224;-67
2023/09/22 04:40:57;;;;;;;8.93;7.10;;;16.00;99.90;;;;;;5055382;28;20230;-67
2023/09/22 04:43:24;;;;;;;8.93;7.05;;;16.00;99.90;;;;;;5043869;28;20203;-68
2023/09/22 04:45:51;;;;;;;13.80;7.63;;;16.00;99.90;;;;;;5034023;28;20224;-68
2023/09/22 04:48:19;;;;;;;8.73;7.38;;;16.00;99.90;;;;;;5041895;28;20204;-68
2023/09/22 04:50:54;;;;;;;9.52;7.05;;;15.90;99.90;;;;;;5019315;28;20217;-67
2023/09/22 04:53:21;;;;;;;10.00;7.82;;;15.90;99.90;;;;;;5052410;28;20211;-67
2023/09/22 04:55:48;;;;;;;9.48;7.20;;;15.90;99.90;;;;;;5049863;28;20234;-67
2023/09/22 04:58:16;;;;;;;12.90;8.30;;;15.90;99.90;;;;;;5044691;28;20354;-67
2023/09/22 05:00:42;;;;;;;11.00;8.32;;;15.90;99.90;;;;;;5020927;28;20638;-67
2023/09/22 05:03:10;;;;;;;12.30;8.55;;;15.90;99.90;;;;;;5042855;28;20224;-66
2023/09/22 05:05:38;;;;;;;10.93;8.50;;;15.40;99.90;;;;;;5007849;28;20223;-68
2023/09/22 05:08:06;;;;;;;10.70;8.55;;;15.90;99.90;;;;;;5049863;28;20205;-67
2023/09/22 05:10:33;;;;;;;12.77;8.40;;;16.00;99.90;;;;;;5056316;28;20408;-67
2023/09/22 05:13:00;;;;;;;9.50;7.63;;;15.90;99.90;;;;;;5049676;28;21374;-67
2023/09/22 05:15:27;;;;;;;9.90;7.30;;;15.90;99.90;;;;;;5048162;28;20197;-67
2023/09/22 05:17:54;;;;;;;10.15;8.43;;;15.90;99.90;;;;;;5030311;28;20203;-67
2023/09/22 05:20:21;;;;;;;12.15;8.73;;;15.90;99.90;;;;;;5050864;28;20192;-67
2023/09/22 05:22:50;;;;;;;10.85;8.60;;;16.00;99.90;;;;;;5021800;28;20219;-67
2023/09/22 05:25:16;;;;;;;11.80;9.18;;;16.00;99.90;;;;;;5054337;28;20506;-67
2023/09/22 05:27:45;;;;;;;9.25;7.65;;;16.00;99.90;;;;;;5036595;28;20461;-67
2023/09/22 05:30:13;;;;;;;9.48;8.10;;;16.00;99.90;;;;;;5053170;28;20226;-67
2023/09/22 05:32:41;;;;;;;10.50;8.65;;;16.00;99.90;;;;;;5040302;28;20207;-67
2023/09/22 05:35:08;;;;;;;11.55;9.23;;;16.00;99.90;;;;;;5048432;28;20206;-67
2023/09/22 05:37:35;;;;;;;10.80;7.90;;;16.10;99.90;;;;;;5027885;28;20220;-67
2023/09/22 05:40:05;;;;;;;9.45;8.05;;;16.10;99.90;;;;;;5055125;28;20643;-67
2023/09/22 05:42:32;;;;;;;10.57;8.15;;;15.80;99.90;;;;;;5049732;28;20251;-67
2023/09/22 05:44:59;;;;;;;10.68;8.43;;;16.00;99.90;;;;;;5044881;28;20229;-67
2023/09/22 05:47:26;;;;;;;10.60;8.38;;;16.00;99.90;;;;;;5042151;28;20193;-67
2023/09/22 05:49:53;;;;;;;10.10;7.57;;;16.10;99.90;;;;;;5048393;28;20196;-67
2023/09/22 05:52:20;;;;;;;8.73;7.78;;;16.00;99.90;;;;;;5057263;28;20208;-67
2023/09/22 05:54:47;;;;;;;10.95;8.20;;;16.00;99.90;;;;;;5021931;28;20235;-67
2023/09/22 05:57:16;;;;;;;10.90;8.73;;;15.90;99.90;;;;;;5059538;28;20204;-67
2023/09/22 05:59:43;;;;;;;11.30;7.70;;;15.90;99.90;;;;;;5059343;28;20700;-67
2023/09/22 06:02:10;;;;;;;9.40;7.90;;;15.90;99.90;;;;;;5058660;28;20658;-67
2023/09/22 06:04:37;;;;;;;9.50;7.93;;;15.90;99.90;;;;;;5046103;28;20224;-67
2023/09/22 06:07:04;;;;;;;10.95;8.75;;;15.90;99.90;;;;;;5051505;28;20977;-67
2023/09/22 06:09:32;;;;;;;9.98;8.02;;;15.90;99.90;;;;;;5031319;28;20246;-67
2023/09/22 06:11:59;;;;;;;8.85;7.35;;;15.90;99.90;;;;;;5060055;28;20328;-67
2023/09/22 06:14:27;;;;;;;7.97;7.07;;;15.90;99.90;;;;;;5067651;28;20222;-67
2023/09/22 06:16:54;;;;;;;11.63;7.53;;;15.90;99.90;;;;;;5057622;28;20191;-67
2023/09/22 06:19:21;;;;;;;7.57;6.82;;;15.80;99.90;;;;;;5043889;28;20204;-67
2023/09/22 06:21:47;;;;;;;9.02;6.80;;;15.80;99.90;;;;;;5048332;28;20196;-67
2023/09/22 06:24:14;;;;;;;10.35;7.20;;;15.90;99.90;;;;;;5028895;28;20731;-67
2023/09/22 06:26:41;;;;;;;11.20;6.28;;;15.90;99.90;;;;;;5057551;28;20556;-67
2023/09/22 06:29:09;;;;;;;10.02;6.43;;;15.90;99.90;;;;;;5059467;28;20316;-67
2023/09/22 06:31:38;;;;;;;9.43;7.10;;;15.90;99.90;;;;;;5057676;28;20216;-67
2023/09/22 06:34:07;;;;;;;7.70;6.50;;;15.80;99.90;;;;;;5048505;28;20200;-67
2023/09/22 06:36:34;;;;;;;12.52;6.57;;;15.90;99.90;;;;;;5048853;28;20215;-67
2023/09/22 06:39:04;;;;;;;10.10;7.32;;;15.90;99.90;;;;;;5029326;28;20926;-67
2023/09/22 06:41:32;;;;;;;8.57;6.65;;;15.90;99.90;;;;;;5060285;28;20288;-67
2023/09/22 06:43:59;;;;;;;10.00;6.68;;;16.80;99.90;;;;;;5060988;28;20234;-67
2023/09/22 06:46:25;;;;;;;10.57;7.18;;;16.10;99.90;;;;;;5054495;28;20192;-67
2023/09/22 06:48:55;;;;;;;11.68;7.32;;;15.90;99.90;;;;;;5047548;28;20207;-67
2023/09/22 06:51:22;;;;;;;8.27;6.78;;;15.90;99.90;;;;;;5047896;28;21006;-67
2023/09/22 06:53:49;;;;;;;15.35;9.52;;;15.90;99.90;;;;;;5060131;28;20188;-67
2023/09/22 06:56:18;;;;;;;13.45;9.35;;;16.20;99.90;;;;;;5026962;28;20232;-67
2023/09/22 06:58:47;;;;;;;11.05;9.15;;;16.00;99.90;;;;;;5059240;28;20221;-67
2023/09/22 07:01:14;;;;;;;14.27;8.05;;;15.90;99.90;;;;;;5060716;28;20882;-67
2023/09/22 07:03:42;;;;;;;14.23;9.10;;;16.00;99.90;;;;;;5039710;28;21514;-67
2023/09/22 07:06:14;;;;;;;13.77;10.32;;;16.40;99.90;;;;;;5044240;28;20223;-67
2023/09/22 07:08:43;;;;;;;11.23;8.80;;;16.30;99.90;;;;;;5061593;28;20243;-66
2023/09/22 07:11:11;;;;;;;11.23;8.07;;;16.20;99.90;;;;;;5028174;28;20215;-67
2023/09/22 07:13:40;;;;;;;13.35;8.48;;;16.20;99.90;;;;;;5060252;28;20249;-66
2023/09/22 07:16:07;;;;;;;10.00;7.55;;;16.20;99.90;;;;;;5053680;28;20220;-66
2023/09/22 07:18:34;;;;;;;13.00;8.75;;;16.10;99.90;;;;;;5058757;28;20592;-67
2023/09/22 07:21:01;;;;;;;12.05;7.72;;;16.00;99.90;;;;;;5029134;28;20208;-67
2023/09/22 07:23:30;;;;;;;11.80;7.28;;;16.00;99.90;;;;;;5052516;28;20267;-66
2023/09/22 07:26:00;;;;;;;11.10;8.20;;;16.10;99.90;;;;;;5020202;28;20360;-66
2023/09/22 07:28:28;;;;;;;10.40;7.40;;;16.10;99.90;;;;;;5045235;28;20224;-67
2023/09/22 07:30:55;;;;;;;9.98;7.68;;;16.00;99.90;;;;;;5043765;28;20204;-67
2023/09/22 07:33:24;;;;;;;8.63;7.07;;;16.00;99.90;;;;;;5058782;28;20196;-66
2023/09/22 07:35:51;;;;;;;10.77;7.57;;;16.00;99.90;;;;;;5039641;28;20278;-67
2023/09/22 07:38:18;;;;;;;11.50;7.38;;;15.80;99.90;;;;;;5046994;28;20231;-66
2023/09/22 07:40:47;;;;;;;9.77;7.50;;;15.90;99.90;;;;;;5034715;28;20572;-67
2023/09/22 07:43:14;;;;;;;9.63;7.30;;;15.80;99.90;;;;;;5038125;28;20646;-67
2023/09/22 07:45:41;;;;;;;8.55;6.90;;;16.00;99.90;;;;;;5046046;28;20223;-66
2023/09/22 07:48:08;;;;;;;8.45;6.85;;;15.90;99.90;;;;;;5057278;28;20220;-66
2023/09/22 07:50:36;;;;;;;9.88;6.70;;;16.00;99.90;;;;;;5043371;28;20196;-66
2023/09/22 07:53:03;;;;;;;9.93;6.95;;;16.10;99.90;;;;;;5049726;28;20926;-66
2023/09/22 07:55:30;;;;;;;17.00;6.93;;;16.10;99.90;;;;;;5054395;28;20397;-65
2023/09/22 07:57:59;;;;;;;8.82;7.05;;;16.10;99.90;;;;;;5028988;28;20216;-66
2023/09/22 08:00:27;;;;;;;8.32;6.35;;;16.00;99.90;;;;;;5054007;28;20769;-66
2023/09/22 08:02:53;;;;;;;6.63;5.05;;;16.00;99.90;;;;;;5056714;28;20189;-66
2023/09/22 08:05:20;;;;;;;8.05;5.75;;;15.80;99.90;;;;;;5061956;28;20221;-66
2023/09/22 08:07:50;;;;;;;7.57;5.32;;;15.90;99.90;;;;;;5042763;28;20467;-66
2023/09/22 08:10:18;;;;;;;8.13;5.55;;;15.90;99.90;;;;;;5048300;28;20196;-66
2023/09/22 08:12:45;;;;;;;7.10;5.32;;;15.80;99.90;;;;;;5027729;28;20208;-66
2023/09/22 08:15:14;;;;;;;7.72;5.10;;;15.90;99.90;;;;;;5049761;28;20200;-66
2023/09/22 08:17:42;;;;;;;8.90;5.85;;;15.70;99.90;;;;;;5063280;28;20206;-66
2023/09/22 08:20:12;;;;;;;6.45;5.20;;;15.70;99.90;;;;;;5061159;28;20199;-66
2023/09/22 08:22:40;;;;;;;8.75;5.93;;;15.70;99.90;;;;;;5045174;28;20729;-66
2023/09/22 08:25:09;;;;;;;8.25;5.40;;;15.80;99.90;;;;;;5043617;28;20224;-66
2023/09/22 08:27:36;;;;;;;8.45;5.28;;;15.80;99.90;;;;;;5020709;28;20227;-66
2023/09/22 08:30:09;;;;;;;8.35;4.82;;;16.00;99.90;;;;;;5038640;28;20254;-66
2023/09/22 08:32:39;;;;;;;6.22;5.10;;;15.90;99.90;;;;;;5052562;28;22257;-65
2023/09/22 08:35:08;;;;;;;5.30;4.50;;;16.10;99.90;;;;;;5047088;28;20227;-66
2023/09/22 08:37:37;;;;;;;6.72;4.40;;;16.10;99.90;;;;;;5039399;28;20791;-66
2023/09/22 08:40:09;;;;;;;10.20;4.40;;;16.30;99.90;;;;;;5053773;28;20200;-66
2023/09/22 08:42:37;;;;;;;6.43;4.53;;;16.30;99.90;;;;;;5023317;28;20353;-67
2023/09/22 08:45:06;;;;;;;10.10;4.00;;;13.60;99.90;;;;;;5058475;28;20228;-66
2023/09/22 08:47:38;;;;;;;8.40;4.63;;;16.40;99.90;;;;;;5048462;28;20203;-66
2023/09/22 08:50:09;;;;;;;9.95;5.15;;;16.50;99.90;;;;;;5051995;28;20207;-66
2023/09/22 08:52:37;;;;;;;6.10;4.40;;;16.60;99.90;;;;;;5043896;28;20200;-67
2023/09/22 08:55:08;;;;;;;6.82;4.38;;;16.60;99.90;;;;;;5057157;28;20212;-66
2023/09/22 08:57:35;;;;;;;7.82;3.80;;;16.50;99.90;;;;;;5054395;28;20317;-66
2023/09/22 09:00:10;;;;;;;9.68;4.00;;;16.80;99.90;;;;;;5032043;28;20600;-66
2023/09/22 09:02:37;;;;;;;6.78;4.30;;;16.50;99.90;;;;;;5043612;28;20223;-66
2023/09/22 09:05:23;;;;;;;9.02;4.40;;;16.50;99.90;;;;;;5053707;28;20199;-66
2023/09/22 09:07:51;;;;;;;6.78;4.07;;;16.40;99.90;;;;;;5050053;28;20232;-66
2023/09/22 09:10:29;;;;;;;7.75;5.05;;;16.40;99.90;;;;;;5044694;28;20596;-66
2023/09/22 09:13:01;;;;;;;7.28;4.00;;;16.50;99.90;;;;;;5042484;28;20227;-66
2023/09/22 09:15:28;;;;;;;5.38;4.25;;;16.50;99.90;;;;;;5043713;28;20240;-66
2023/09/22 09:18:06;;;;;;;9.77;4.00;;;16.50;99.90;;;;;;5058593;28;20992;-66
2023/09/22 09:20:36;;;;;;;5.95;3.72;;;16.50;99.90;;;;;;5053143;28;20196;-66
2023/09/22 09:23:17;;;;;;;10.25;4.45;;;16.60;99.90;;;;;;5040478;28;20212;-66
2023/09/22 09:25:45;;;;;;;8.38;4.78;;;16.50;99.90;;;;;;5042241;28;20247;-66
2023/09/22 09:28:12;;;;;;;5.95;5.32;;;16.50;99.90;;;;;;5039788;28;20200;-65
2023/09/22 09:30:46;;;;;;;7.32;5.72;;;16.50;99.90;;;;;;5021254;28;20219;-66
2023/09/22 09:33:13;;;;;;;10.23;6.85;;;16.40;99.90;;;;;;5062627;28;20485;-67
2023/09/22 09:35:42;;;;;;;7.18;5.80;;;16.50;99.90;;;;;;5045780;28;20552;-67
2023/09/22 09:38:09;;;;;;;7.68;6.20;;;16.50;99.90;;;;;;5048087;28;20203;-66
2023/09/22 09:40:37;;;;;;;7.72;5.97;;;16.50;99.90;;;;;;5043104;28;20281;-67
2023/09/22 09:43:10;;;;;;;10.45;5.85;;;16.60;99.90;;;;;;5054757;28;20422;-66
2023/09/22 09:45:47;;;;;;;7.43;5.50;;;16.50;99.90;;;;;;5014999;28;20231;-66
2023/09/22 09:48:16;;;;;;;7.35;6.22;;;16.60;99.90;;;;;;5058154;28;20208;-66
2023/09/22 09:50:51;;;;;;;8.55;6.65;;;16.60;99.90;;;;;;5043031;28;20201;-66
2023/09/22 09:53:32;;;;;;;8.93;6.15;;;16.60;99.90;;;;;;5054669;28;20224;-66
2023/09/22 09:56:02;;;;;;;9.05;6.07;;;16.70;99.90;;;;;;5046007;28;20555;-66
2023/09/22 09:58:32;;;;;;;6.85;6.03;;;16.70;99.90;;;;;;5063475;28;20211;-66
2023/09/22 10:01:00;;;;;;;12.02;6.22;;;16.70;99.90;;;;;;5011836;28;20876;-66
2023/09/22 10:03:28;;;;;;;7.55;5.93;;;16.70;99.90;;;;;;5059303;28;20204;-66
2023/09/22 10:05:58;;;;;;;10.32;6.18;;;16.60;99.90;;;;;;5048945;28;20418;-66
2023/09/22 10:08:26;;;;;;;15.18;6.57;;;16.60;99.90;;;;;;5054669;28;20681;-66
2023/09/22 10:10:57;;;;;;;6.93;5.63;;;16.60;99.90;;;;;;5042479;28;20316;-66
2023/09/22 10:13:24;;;;;;;6.32;5.63;;;16.50;99.90;;;;;;5056597;28;20566;-66
2023/09/22 10:15:57;;;;;;;10.82;5.60;;;16.60;99.90;;;;;;5011243;28;22173;-66
2023/09/22 10:18:39;;;;;;;9.43;6.50;;;16.60;99.90;;;;;;5058703;28;20581;-66
2023/09/22 10:21:07;;;;;;;10.95;5.82;;;16.70;99.90;;;;;;5047267;28;20363;-66
2023/09/22 10:23:35;;;;;;;6.55;4.70;;;16.80;99.90;;;;;;5063021;28;20196;-66
2023/09/22 10:26:16;;;;;;;5.75;4.28;;;16.80;99.90;;;;;;5043997;28;20964;-66
2023/09/22 10:28:44;;;;;;;5.38;4.13;;;16.80;99.90;;;;;;5059636;28;20220;-66
2023/09/22 10:31:11;;;;;;;5.78;3.88;;;16.70;99.90;;;;;;5024553;28;20974;-66
2023/09/22 10:33:38;;;;;;;4.80;4.35;;;16.70;99.90;;;;;;5059672;28;20195;-66
2023/09/22 10:36:08;;;;;;;5.22;3.80;;;16.50;99.90;;;;;;5050579;28;20238;-66
2023/09/22 10:38:55;;;;;;;7.28;4.43;;;16.50;99.90;;;;;;5052773;28;20220;-66
2023/09/22 10:41:22;;;;;;;5.28;3.65;;;16.70;99.90;;;;;;5040270;28;20305;-65
2023/09/22 10:43:58;;;;;;;5.05;3.33;;;16.70;99.90;;;;;;5050790;28;20243;-66
2023/09/22 10:46:26;;;;;;;9.15;5.53;;;16.80;99.90;;;;;;5057932;28;20227;-66
2023/09/22 10:48:53;;;;;;;6.90;4.32;;;16.50;99.90;;;;;;5025495;28;20231;-65
2023/09/22 10:51:23;;;;;;;5.43;2.80;;;17.00;99.90;;;;;;5062307;28;20226;-66
2023/09/22 10:53:59;;;;;;;3.83;2.72;;;17.10;99.90;;;;;;5050995;28;20211;-65
2023/09/22 10:56:26;;;;;;;4.03;2.40;;;17.10;99.90;;;;;;5047718;28;20286;-65
2023/09/22 10:58:54;;;;;;;13.35;7.50;;;17.10;99.90;;;;;;5065025;28;20812;-65
2023/09/22 11:01:22;;;;;;;4.10;2.67;;;17.10;99.90;;;;;;5056295;28;20255;-65
2023/09/22 11:03:53;;;;;;;3.97;2.20;;;17.10;99.90;;;;;;5029775;28;20303;-65
2023/09/22 11:06:21;;;;;;;5.68;1.80;;;17.20;99.90;;;;;;5052897;28;20411;-65
2023/09/22 11:08:52;;;;;;;3.05;1.85;;;17.40;99.90;;;;;;5042504;28;20227;-65
2023/09/22 11:11:20;;;;;;;3.10;1.65;;;17.50;99.90;;;;;;5040927;28;20204;-66
2023/09/22 11:13:54;;;;;;;3.70;1.65;;;17.60;99.90;;;;;;5044479;28;20235;-65
2023/09/22 11:16:21;;;;;;;2.72;1.65;;;17.70;99.90;;;;;;5036289;28;20235;-65
2023/09/22 11:18:49;;;;;;;3.10;1.80;;;17.80;99.90;;;;;;5020371;28;20606;-65
2023/09/22 11:21:20;;;;;;;3.53;1.58;;;17.80;99.90;;;;;;5019060;28;20450;-65
2023/09/22 11:23:50;;;;;;;3.63;1.58;;;18.00;99.90;;;;;;5039423;28;20224;-65
2023/09/22 11:26:17;;;;;;;1.73;1.48;;;17.60;99.90;;;;;;5039836;28;21025;-65
2023/09/22 11:28:46;;;;;;;3.63;1.30;;;18.10;99.90;;;;;;5037330;28;20221;-65
2023/09/22 11:31:15;;;;;;;2.17;1.60;;;17.90;99.90;;;;;;5035992;28;20311;-65
2023/09/22 11:33:43;;;;;;;2.15;1.45;;;18.00;99.90;;;;;;5039700;28;20223;-65
2023/09/22 11:36:11;;;;;;;2.80;1.30;;;17.80;99.90;;;;;;4983109;28;21266;-65
2023/09/22 11:38:39;;;;;;;3.28;1.40;;;17.80;99.90;;;;;;5042574;28;20208;-65
2023/09/22 11:41:10;;;;;;;2.78;1.60;;;17.80;99.90;;;;;;5015293;28;20212;-65
2023/09/22 11:43:38;;;;;;;4.40;1.40;;;17.70;99.90;;;;;;5019910;28;20387;-65
2023/09/22 11:46:09;;;;;;;2.13;1.08;;;17.70;99.90;;;;;;5040735;28;20714;-65
2023/09/22 11:49:08;;;;;;;2.40;1.33;;;17.70;99.90;;;;;;5054325;28;20208;-65
2023/09/22 11:51:42;;;;;;;1.83;1.20;;;17.80;99.90;;;;;;4963656;28;20214;-65
2023/09/22 11:54:09;;;;;;;3.97;1.50;;;17.80;99.90;;;;;;5029619;28;20273;-65
2023/09/22 11:56:37;;;;;;;1.77;1.48;;;17.70;99.90;;;;;;5032850;28;20262;-65
2023/09/22 11:59:08;;;;;;;6.18;2.33;;;17.70;99.90;;;;;;5027003;28;20766;-66
2023/09/22 12:01:34;;;;;;;5.32;2.13;;;17.60;99.90;;;;;;5048431;28;20255;-65
2023/09/22 12:04:02;;;;;;;2.83;1.52;;;17.60;99.90;;;;;;5049892;28;20211;-66
2023/09/22 12:06:28;;;;;;;1.77;1.52;;;17.70;99.90;;;;;;5028271;28;20731;-65
2023/09/22 12:08:56;;;;;;;1.50;1.40;;;;;;;;;;5047091;28;20196;-65
2023/09/22 12:11:23;;;;;;;7.90;2.85;;;17.70;99.90;;;;;;5050693;28;20200;-65
2023/09/22 12:13:51;;;;;;;2.40;2.17;;;17.50;99.90;;;;;;5036218;28;20677;-65
2023/09/22 12:16:18;;;;;;;4.38;1.77;;;17.80;99.90;;;;;;5045825;28;20203;-65
2023/09/22 12:18:47;;;;;;;2.78;1.80;;;17.90;99.90;;;;;;5053334;28;20338;-66
2023/09/22 12:21:14;;;;;;;1.70;1.60;;;18.00;99.90;;;;;;5040943;28;20228;-65
2023/09/22 12:23:40;;;;;;;2.75;1.67;;;17.90;99.90;;;;;;5016047;28;20233;-65
2023/09/22 12:26:07;;;;;;;6.30;2.28;;;17.90;99.90;;;;;;5049095;28;20211;-65
2023/09/22 12:28:34;;;;;;;2.65;1.83;;;17.90;99.90;;;;;;5034898;28;20192;-65
2023/09/22 12:31:02;;;;;;;3.10;2.10;;;17.90;99.90;;;;;;5040942;28;20527;-65
2023/09/22 12:33:29;;;;;;;2.53;2.33;;;18.00;99.90;;;;;;5052851;28;20203;-65
2023/09/22 12:35:56;;;;;;;5.18;2.17;;;18.10;99.90;;;;;;5048975;28;20224;-64
2023/09/22 12:38:23;;;;;;;2.38;1.88;;;18.10;99.90;;;;;;5016606;28;20685;-64
2023/09/22 12:40:51;;;;;;;2.55;1.80;;;18.10;99.90;;;;;;5047029;28;20226;-65
2023/09/22 12:43:18;;;;;;;3.25;1.80;;;18.10;99.90;;;;;;5008341;28;20259;-65
2023/09/22 12:45:45;;;;;;;1.88;1.70;;;17.90;99.90;;;;;;5043188;28;20300;-66
2023/09/22 12:48:13;;;;;;;2.70;2.30;;;17.90;99.90;;;;;;5014935;28;20871;-65
2023/09/22 12:50:40;;;;;;;2.45;2.25;;;17.90;99.90;;;;;;5047131;28;20312;-65